Time;durP1;ratioP1;P1;durP2;ratioP2;P2;SDS_P1;SDS_P2;PMS_P1;PMS_P2;Temp;Humidity;BMP_temperature;BMP_pressure;BME280_temperature;BME280_humidity;BME280_pressure;Samples;Min_cycle;Max_cycle;Signal;HPM_P1;HPM_P2
2023/03/23 00:01:26;;;;;;;5.30;4.77;;;11.90;1.00;;;;;;5087356;28;20519;-80
2023/03/23 00:03:56;;;;;;;5.17;3.80;;;11.90;1.00;;;;;;5095111;28;20444;-79
2023/03/23 00:06:24;;;;;;;6.60;3.97;;;11.90;99.90;;;;;;5095718;28;20540;-80
2023/03/23 00:08:52;;;;;;;3.60;3.30;;;11.90;1.00;;;;;;5089624;28;20457;-80
2023/03/23 00:11:22;;;;;;;4.23;3.40;;;11.90;99.90;;;;;;5084459;28;20489;-80
2023/03/23 00:13:51;;;;;;;4.23;3.73;;;11.90;99.90;;;;;;5079878;28;20476;-80
2023/03/23 00:16:20;;;;;;;4.80;3.30;;;11.60;1.00;;;;;;5079980;28;20559;-81
2023/03/23 00:18:49;;;;;;;7.97;4.47;;;11.80;99.90;;;;;;5081286;28;20513;-81
2023/03/23 00:21:16;;;;;;;4.37;3.97;;;11.80;99.90;;;;;;5081162;28;20455;-81
2023/03/23 00:23:44;;;;;;;5.50;4.83;;;11.80;99.90;;;;;;5082523;28;20797;-81
2023/03/23 00:26:12;;;;;;;8.43;5.53;;;11.70;99.90;;;;;;5084525;28;20480;-80
2023/03/23 00:28:40;;;;;;;10.10;7.20;;;11.80;99.90;;;;;;5082013;28;20816;-80
2023/03/23 00:31:08;;;;;;;8.90;5.77;;;11.70;99.90;;;;;;5081305;28;20514;-80
2023/03/23 00:33:40;;;;;;;6.80;4.70;;;11.70;99.90;;;;;;5081899;28;20880;-80
2023/03/23 00:36:09;;;;;;;4.70;4.20;;;11.70;99.90;;;;;;5087966;28;20529;-80
2023/03/23 00:38:36;;;;;;;6.33;3.73;;;11.70;99.90;;;;;;5100555;28;20527;-80
2023/03/23 00:41:04;;;;;;;4.23;3.40;;;11.70;99.90;;;;;;5101323;28;20478;-80
2023/03/23 00:43:31;;;;;;;3.47;2.90;;;11.70;99.90;;;;;;5100432;28;20441;-80
2023/03/23 00:46:00;;;;;;;3.97;3.17;;;11.70;99.90;;;;;;5096132;28;20460;-80
2023/03/23 00:48:29;;;;;;;3.77;3.33;;;11.60;99.90;;;;;;5090746;28;20440;-80
2023/03/23 00:50:56;;;;;;;4.60;3.37;;;11.60;99.90;;;;;;5093149;28;20452;-80
2023/03/23 00:53:23;;;;;;;3.00;2.80;;;11.60;99.90;;;;;;5096759;28;20418;-80
2023/03/23 00:55:51;;;;;;;3.20;2.90;;;11.60;99.90;;;;;;5100096;28;20473;-80
2023/03/23 00:58:18;;;;;;;3.40;2.77;;;11.30;99.90;;;;;;5099241;28;20438;-80
2023/03/23 01:00:45;;;;;;;3.43;3.13;;;11.60;99.90;;;;;;5099307;28;20426;-80
2023/03/23 01:03:18;;;;;;;8.77;3.07;;;11.50;99.90;;;;;;5099314;28;20462;-80
2023/03/23 01:05:46;;;;;;;5.40;4.20;;;11.50;99.90;;;;;;5092989;28;20460;-80
2023/03/23 01:08:14;;;;;;;8.63;3.57;;;11.50;99.90;;;;;;5084701;28;20472;-81
2023/03/23 01:10:41;;;;;;;3.13;2.63;;;11.50;99.90;;;;;;5088218;28;20453;-80
2023/03/23 01:13:08;;;;;;;3.33;3.03;;;11.50;99.90;;;;;;5081152;28;20954;-80
2023/03/23 01:15:36;;;;;;;3.67;3.33;;;11.30;99.90;;;;;;5079912;28;20451;-80
2023/03/23 01:18:03;;;;;;;2.73;2.53;;;11.40;99.90;;;;;;5078952;28;20454;-80
2023/03/23 01:20:31;;;;;;;3.33;3.10;;;11.40;1.00;;;;;;5079459;28;20490;-80
2023/03/23 01:23:00;;;;;;;5.93;3.30;;;11.40;1.00;;;;;;5079773;28;20470;-80
2023/03/23 01:25:28;;;;;;;3.33;2.67;;;11.40;99.90;;;;;;5079642;28;20447;-80
2023/03/23 01:27:55;;;;;;;3.60;2.80;;;11.30;99.90;;;;;;5078857;28;20876;-80
2023/03/23 01:30:22;;;;;;;3.00;2.80;;;11.30;99.90;;;;;;5079248;28;20446;-80
2023/03/23 01:32:49;;;;;;;3.53;2.63;;;11.20;99.90;;;;;;5079006;28;20811;-80
2023/03/23 01:35:17;;;;;;;3.47;3.17;;;11.20;1.00;;;;;;5079354;28;20473;-81
2023/03/23 01:37:47;;;;;;;5.90;3.07;;;11.20;1.00;;;;;;5079119;28;20476;-80
2023/03/23 01:40:15;;;;;;;3.40;3.10;;;11.20;1.00;;;;;;5079049;28;20479;-80
2023/03/23 01:42:42;;;;;;;4.17;3.63;;;11.10;25.20;;;;;;5078718;28;20453;-80
2023/03/23 01:45:29;;;;;;;3.73;3.43;;;11.20;1.00;;;;;;5086187;28;20448;-81
2023/03/23 01:48:02;;;;;;;4.80;3.80;;;11.20;1.00;;;;;;5090639;28;20432;-81
2023/03/23 01:50:35;;;;;;;3.80;3.50;;;11.10;1.00;;;;;;5088519;28;20427;-80
2023/03/23 01:53:08;;;;;;;2.90;2.70;;;11.10;1.00;;;;;;5080596;28;20435;-80
2023/03/23 01:55:38;;;;;;;5.33;3.23;;;10.70;1.00;;;;;;5079581;28;20437;-80
2023/03/23 01:58:06;;;;;;;8.80;4.40;;;11.10;1.00;;;;;;5080571;28;20452;-80
2023/03/23 02:00:33;;;;;;;4.30;3.17;;;11.20;1.00;;;;;;5080017;28;20487;-80
2023/03/23 02:03:01;;;;;;;4.90;3.17;;;11.20;1.00;;;;;;5079128;28;20448;-80
2023/03/23 02:05:33;;;;;;;2.97;2.73;;;11.20;1.00;;;;;;5078772;28;20423;-80
2023/03/23 02:08:05;;;;;;;3.40;3.10;;;11.20;1.00;;;;;;5080639;28;20455;-80
2023/03/23 02:10:33;;;;;;;3.50;3.20;;;11.20;99.90;;;;;;5085543;28;20432;-80
2023/03/23 02:13:02;;;;;;;2.73;2.53;;;11.20;99.90;;;;;;5088279;28;20447;-81
2023/03/23 02:15:39;;;;;;;4.87;3.20;;;11.20;99.90;;;;;;5085423;28;20443;-80
2023/03/23 02:18:15;;;;;;;2.67;2.47;;;11.20;99.90;;;;;;5078608;28;20436;-81
2023/03/23 02:21:15;;;;;;;3.00;2.80;;;11.20;99.90;;;;;;5077904;28;20472;-80
2023/03/23 02:24:13;;;;;;;3.17;2.97;;;11.20;99.90;;;;;;5054075;28;20455;-81
2023/03/23 02:26:50;;;;;;;9.03;2.97;;;11.20;99.90;;;;;;5078831;28;20466;-81
2023/03/23 02:29:47;;;;;;;3.50;3.30;;;11.20;99.90;;;;;;5085374;28;20484;-81
2023/03/23 02:32:35;;;;;;;3.30;3.00;;;11.30;99.90;;;;;;5057491;28;20459;-82
2023/03/23 02:35:09;;;;;;;3.23;2.93;;;11.30;99.90;;;;;;5082358;28;20438;-80
2023/03/23 02:37:46;;;;;;;4.23;3.00;;;11.30;76.80;;;;;;5081213;28;20537;-82
2023/03/23 02:40:17;;;;;;;4.37;2.60;;;12.00;99.90;;;;;;5078372;28;20810;-80
2023/03/23 02:42:49;;;;;;;3.10;2.47;;;11.40;1.00;;;;;;5081776;28;20411;-80
2023/03/23 02:45:18;;;;;;;3.00;2.80;;;11.40;1.00;;;;;;5085539;28;20484;-80
2023/03/23 02:47:46;;;;;;;4.27;3.47;;;11.40;93.00;;;;;;5083769;28;20470;-82
2023/03/23 02:50:18;;;;;;;3.50;2.80;;;11.40;1.00;;;;;;5081013;28;20534;-80
2023/03/23 02:52:47;;;;;;;2.80;2.60;;;11.40;99.90;;;;;;5080856;28;20493;-81
2023/03/23 02:55:15;;;;;;;4.00;3.67;;;11.40;99.90;;;;;;5079942;28;20457;-80
2023/03/23 02:57:43;;;;;;;9.90;4.43;;;11.30;1.00;;;;;;5079157;28;20480;-81
2023/03/23 03:00:14;;;;;;;3.27;2.97;;;11.30;1.00;;;;;;5079135;28;20517;-80
2023/03/23 03:02:44;;;;;;;2.93;2.73;;;11.30;99.90;;;;;;5079152;28;20805;-80
2023/03/23 03:05:22;;;;;;;3.23;3.00;;;11.20;99.90;;;;;;5078198;28;20483;-80
2023/03/23 03:08:07;;;;;;;3.70;3.20;;;11.30;99.90;;;;;;5078894;28;20566;-80
2023/03/23 03:10:43;;;;;;;3.23;3.00;;;11.30;99.90;;;;;;5078216;28;20997;-80
2023/03/23 03:13:16;;;;;;;3.30;3.00;;;11.30;99.90;;;;;;5083687;28;20909;-81
2023/03/23 03:15:46;;;;;;;5.30;2.90;;;11.80;99.90;;;;;;5083939;28;20483;-81
2023/03/23 03:18:19;;;;;;;3.47;2.90;;;11.30;99.90;;;;;;5080707;28;20466;-81
2023/03/23 03:20:51;;;;;;;3.17;2.83;;;11.40;99.90;;;;;;5085644;28;20481;-81
2023/03/23 03:23:20;;;;;;;2.90;2.60;;;11.40;99.90;;;;;;5081718;28;20459;-82
2023/03/23 03:25:48;;;;;;;5.10;3.70;;;11.40;86.20;;;;;;5078891;28;20451;-82
2023/03/23 03:28:21;;;;;;;3.50;3.20;;;11.40;20.40;;;;;;5078986;28;20463;-82
2023/03/23 03:30:51;;;;;;;4.17;3.50;;;11.40;1.00;;;;;;5079029;28;20773;-81
2023/03/23 03:33:20;;;;;;;6.90;3.13;;;11.40;99.90;;;;;;5080511;28;20436;-81
2023/03/23 03:35:49;;;;;;;4.30;3.80;;;11.40;99.90;;;;;;5085520;28;20574;-82
2023/03/23 03:38:16;;;;;;;3.20;3.00;;;11.40;99.90;;;;;;5081708;28;20946;-82
2023/03/23 03:40:43;;;;;;;4.87;4.10;;;11.40;99.90;;;;;;5078929;28;20925;-82
2023/03/23 03:43:09;;;;;;;5.97;3.90;;;11.40;99.20;;;;;;5080415;28;20447;-81
2023/03/23 03:45:36;;;;;;;3.30;3.10;;;11.70;99.90;;;;;;5080756;28;20459;-81
2023/03/23 03:48:03;;;;;;;3.93;3.00;;;11.50;99.90;;;;;;5079617;28;20944;-82
2023/03/23 03:50:30;;;;;;;3.63;2.67;;;11.50;1.00;;;;;;5078783;28;20450;-82
2023/03/23 03:52:59;;;;;;;4.17;3.60;;;11.50;99.90;;;;;;5082258;28;20450;-82
2023/03/23 03:55:27;;;;;;;4.23;3.10;;;11.30;99.90;;;;;;5081772;28;20993;-82
2023/03/23 03:57:55;;;;;;;4.50;3.87;;;11.40;27.80;;;;;;5081417;28;20500;-82
2023/03/23 04:00:23;;;;;;;2.77;2.57;;;11.40;99.90;;;;;;5081613;28;20454;-82
2023/03/23 04:02:53;;;;;;;4.10;3.13;;;11.30;99.90;;;;;;5081358;28;20455;-82
2023/03/23 04:05:21;;;;;;;3.30;3.00;;;11.30;99.90;;;;;;5081767;28;20439;-82
2023/03/23 04:07:51;;;;;;;5.23;3.63;;;11.30;1.00;;;;;;5081338;28;20486;-81
2023/03/23 04:10:22;;;;;;;4.53;2.83;;;11.30;99.90;;;;;;5081316;28;20507;-81
2023/03/23 04:12:48;;;;;;;4.40;3.20;;;11.30;60.00;;;;;;5080845;28;20436;-81
2023/03/23 04:15:15;;;;;;;4.40;2.80;;;11.30;99.90;;;;;;5082162;28;20535;-81
2023/03/23 04:17:42;;;;;;;2.70;2.40;;;11.30;99.90;;;;;;5081676;28;20559;-81
2023/03/23 04:20:15;;;;;;;3.20;2.90;;;11.30;99.90;;;;;;5081279;28;20482;-81
2023/03/23 04:22:43;;;;;;;6.37;3.20;;;11.30;33.40;;;;;;5081789;28;20450;-81
2023/03/23 04:25:12;;;;;;;3.30;3.10;;;11.30;99.90;;;;;;5088527;28;20463;-82
2023/03/23 04:27:43;;;;;;;4.63;3.23;;;11.30;99.90;;;;;;5086733;28;20505;-82
2023/03/23 04:30:12;;;;;;;6.83;3.33;;;11.30;99.90;;;;;;5101086;28;20449;-81
2023/03/23 04:32:41;;;;;;;4.03;3.23;;;11.30;99.90;;;;;;5101188;28;20434;-81
2023/03/23 04:35:11;;;;;;;3.60;3.30;;;11.30;99.90;;;;;;5101613;28;20470;-81
2023/03/23 04:37:39;;;;;;;3.50;3.20;;;11.30;1.00;;;;;;5101304;28;20494;-81
2023/03/23 04:40:10;;;;;;;4.20;3.30;;;11.30;1.00;;;;;;5101517;28;20459;-81
2023/03/23 04:42:39;;;;;;;3.83;3.20;;;11.30;1.00;;;;;;5100250;28;20452;-81
2023/03/23 04:45:09;;;;;;;3.63;2.90;;;11.20;1.00;;;;;;5100286;28;20502;-81
2023/03/23 04:47:39;;;;;;;3.97;3.57;;;11.30;99.90;;;;;;5097950;28;20464;-81
2023/03/23 04:50:21;;;;;;;4.60;4.13;;;11.20;1.00;;;;;;5096190;28;20492;-81
2023/03/23 04:52:48;;;;;;;4.90;3.50;;;11.20;5.90;;;;;;5095540;28;20443;-81
2023/03/23 04:55:15;;;;;;;6.17;3.70;;;11.10;99.90;;;;;;5094802;28;20519;-81
2023/03/23 04:57:42;;;;;;;3.77;3.03;;;11.20;11.10;;;;;;5094897;28;20466;-81
2023/03/23 05:00:14;;;;;;;3.80;2.90;;;11.20;1.00;;;;;;5095290;28;20489;-82
2023/03/23 05:02:41;;;;;;;3.50;3.20;;;11.30;1.00;;;;;;5094315;28;20431;-81
2023/03/23 05:05:09;;;;;;;3.90;3.10;;;11.20;99.90;;;;;;5092690;28;20450;-81
2023/03/23 05:07:37;;;;;;;3.80;3.50;;;11.30;1.00;;;;;;5085816;28;20859;-81
2023/03/23 05:10:05;;;;;;;3.97;2.90;;;11.30;1.00;;;;;;5085031;28;20815;-81
2023/03/23 05:12:32;;;;;;;6.13;3.40;;;11.30;99.90;;;;;;5082011;28;20453;-81
2023/03/23 05:14:59;;;;;;;5.10;3.50;;;11.30;99.90;;;;;;5081106;28;20453;-81
2023/03/23 05:17:29;;;;;;;5.23;3.70;;;11.20;1.00;;;;;;5081817;28;20990;-81
2023/03/23 05:19:56;;;;;;;4.97;3.80;;;11.10;1.00;;;;;;5084668;28;20571;-81
2023/03/23 05:22:23;;;;;;;6.30;3.83;;;11.10;15.30;;;;;;5085600;28;20450;-82
2023/03/23 05:24:51;;;;;;;6.03;4.33;;;11.10;1.00;;;;;;5085603;28;20535;-81
2023/03/23 05:27:19;;;;;;;3.53;3.23;;;11.10;20.70;;;;;;5086302;28;20474;-81
2023/03/23 05:29:48;;;;;;;4.00;3.60;;;11.10;1.00;;;;;;5086196;28;20873;-81
2023/03/23 05:32:15;;;;;;;3.47;3.20;;;11.00;1.00;;;;;;5085864;28;20450;-81
2023/03/23 05:34:44;;;;;;;3.50;3.20;;;11.00;1.00;;;;;;5081356;28;20451;-81
2023/03/23 05:37:11;;;;;;;3.90;3.50;;;11.10;1.00;;;;;;5081423;28;20441;-81
2023/03/23 05:39:39;;;;;;;4.27;3.20;;;11.10;1.00;;;;;;5082614;28;20452;-80
2023/03/23 05:42:07;;;;;;;5.63;4.47;;;11.10;1.00;;;;;;5080158;28;20455;-80
2023/03/23 05:44:34;;;;;;;3.53;3.20;;;11.10;1.00;;;;;;5079357;28;20458;-80
2023/03/23 05:47:01;;;;;;;7.10;3.00;;;11.10;1.00;;;;;;5080532;28;20468;-81
2023/03/23 05:49:28;;;;;;;5.10;3.40;;;11.10;1.00;;;;;;5081906;28;20448;-81
2023/03/23 05:51:56;;;;;;;3.10;2.90;;;11.10;99.90;;;;;;5079603;28;20445;-82
2023/03/23 05:54:23;;;;;;;3.10;2.90;;;11.00;99.90;;;;;;5082241;28;20486;-81
2023/03/23 05:56:50;;;;;;;3.00;2.77;;;11.00;99.90;;;;;;5081474;28;20484;-80
2023/03/23 05:59:17;;;;;;;4.50;3.47;;;11.00;99.90;;;;;;5082083;28;20548;-81
2023/03/23 06:01:44;;;;;;;3.13;2.93;;;11.00;99.90;;;;;;5080507;28;20484;-81
2023/03/23 06:04:11;;;;;;;7.43;4.27;;;10.90;1.00;;;;;;5080133;28;20444;-81
2023/03/23 06:06:38;;;;;;;5.03;3.60;;;10.90;1.00;;;;;;5079938;28;20490;-82
2023/03/23 06:09:07;;;;;;;3.60;2.80;;;10.90;1.00;;;;;;5079779;28;20538;-81
2023/03/23 06:11:34;;;;;;;2.70;2.50;;;10.80;1.00;;;;;;5077601;28;20443;-81
2023/03/23 06:14:00;;;;;;;2.53;2.20;;;10.80;1.00;;;;;;5076777;28;20445;-81
2023/03/23 06:16:27;;;;;;;5.57;3.30;;;11.00;56.20;;;;;;5077169;28;20493;-81
2023/03/23 06:18:56;;;;;;;4.20;3.27;;;10.50;99.90;;;;;;5077378;28;20431;-81
2023/03/23 06:21:23;;;;;;;5.67;3.03;;;10.60;99.90;;;;;;5084503;28;20463;-81
2023/03/23 06:23:50;;;;;;;3.10;2.80;;;10.60;40.00;;;;;;5084425;28;20523;-81
2023/03/23 06:26:20;;;;;;;2.90;2.33;;;10.70;55.20;;;;;;5085277;28;20471;-81
2023/03/23 06:28:48;;;;;;;3.33;3.03;;;10.80;99.90;;;;;;5087492;28;20508;-81
2023/03/23 06:31:19;;;;;;;5.00;2.97;;;10.60;68.30;;;;;;5086287;28;20451;-81
2023/03/23 06:33:47;;;;;;;5.77;2.60;;;10.60;94.50;;;;;;5088852;28;20449;-81
2023/03/23 06:36:14;;;;;;;4.63;3.07;;;10.60;99.90;;;;;;5085450;28;20463;-81
2023/03/23 06:38:41;;;;;;;5.93;2.67;;;10.60;99.90;;;;;;5079993;28;20459;-81
2023/03/23 06:41:08;;;;;;;3.80;2.70;;;10.60;99.90;;;;;;5078489;28;20461;-80
2023/03/23 06:43:39;;;;;;;4.63;3.20;;;10.60;99.90;;;;;;5079514;28;20473;-81
2023/03/23 06:46:06;;;;;;;9.17;4.47;;;10.60;99.90;;;;;;5079851;28;20562;-80
2023/03/23 06:48:33;;;;;;;6.87;3.60;;;10.70;99.90;;;;;;5080190;28;20450;-82
2023/03/23 06:51:00;;;;;;;3.40;3.10;;;10.70;99.90;;;;;;5088681;28;20507;-81
2023/03/23 06:53:27;;;;;;;3.80;3.50;;;10.70;99.90;;;;;;5092185;28;20479;-81
2023/03/23 06:55:54;;;;;;;7.33;3.40;;;10.70;99.90;;;;;;5085134;28;20463;-80
2023/03/23 06:58:23;;;;;;;3.37;3.07;;;10.70;99.90;;;;;;5080665;28;20491;-81
2023/03/23 07:00:55;;;;;;;10.53;3.77;;;10.70;99.90;;;;;;5079592;28;20483;-82
2023/03/23 07:03:22;;;;;;;4.87;3.87;;;10.40;99.90;;;;;;5079457;28;20439;-81
2023/03/23 07:05:48;;;;;;;4.30;3.90;;;10.70;99.90;;;;;;5078431;28;20470;-81
2023/03/23 07:08:15;;;;;;;4.47;3.90;;;10.70;99.90;;;;;;5084648;28;20431;-81
2023/03/23 07:10:42;;;;;;;6.90;3.83;;;10.80;99.90;;;;;;5087837;28;20447;-81
2023/03/23 07:13:09;;;;;;;4.03;3.63;;;10.70;99.90;;;;;;5088208;28;20477;-82
2023/03/23 07:15:36;;;;;;;6.23;3.23;;;10.70;99.90;;;;;;5081286;28;20472;-82
2023/03/23 07:18:05;;;;;;;4.30;3.60;;;10.70;99.90;;;;;;5078071;28;20431;-81
2023/03/23 07:20:32;;;;;;;8.80;4.53;;;10.70;99.90;;;;;;5078288;28;20573;-81
2023/03/23 07:23:01;;;;;;;13.63;4.10;;;10.70;99.90;;;;;;5078120;28;20407;-81
2023/03/23 07:25:28;;;;;;;5.63;3.70;;;10.90;99.90;;;;;;5078248;28;20505;-81
2023/03/23 07:27:55;;;;;;;10.83;4.47;;;10.70;99.90;;;;;;5082523;28;20456;-81
2023/03/23 07:30:22;;;;;;;4.13;3.50;;;10.70;99.90;;;;;;5077856;28;20456;-81
2023/03/23 07:32:49;;;;;;;3.77;3.33;;;10.70;99.90;;;;;;5077858;28;20538;-81
2023/03/23 07:35:17;;;;;;;15.83;5.80;;;10.70;99.90;;;;;;5087137;28;20503;-81
2023/03/23 07:37:45;;;;;;;38.47;7.30;;;10.70;99.90;;;;;;5088517;28;20475;-82
2023/03/23 07:40:15;;;;;;;5.80;3.70;;;10.50;1.00;;;;;;5085993;28;20455;-81
2023/03/23 07:42:43;;;;;;;9.10;4.70;;;10.70;99.90;;;;;;5082848;28;20812;-81
2023/03/23 07:45:12;;;;;;;8.50;4.50;;;10.70;99.90;;;;;;5082520;28;20791;-81
2023/03/23 07:47:39;;;;;;;7.63;4.10;;;10.70;1.00;;;;;;5079447;28;20494;-81
2023/03/23 07:50:08;;;;;;;4.67;3.43;;;10.80;1.00;;;;;;5078726;28;20445;-81
2023/03/23 07:52:37;;;;;;;4.80;4.27;;;10.80;1.00;;;;;;5081973;28;20445;-81
2023/03/23 07:55:05;;;;;;;5.03;4.40;;;10.80;1.00;;;;;;5084738;28;20443;-81
2023/03/23 07:57:33;;;;;;;8.70;3.43;;;11.00;1.00;;;;;;5084868;28;20490;-81
2023/03/23 08:00:00;;;;;;;5.30;3.80;;;11.30;1.00;;;;;;5083761;28;20954;-81
2023/03/23 08:02:27;;;;;;;4.47;3.30;;;11.00;1.00;;;;;;5080687;28;20456;-81
2023/03/23 08:04:56;;;;;;;5.33;4.13;;;11.00;1.00;;;;;;5080664;28;20451;-82
2023/03/23 08:07:23;;;;;;;3.97;3.60;;;11.00;1.00;;;;;;5079663;28;20481;-81
2023/03/23 08:09:52;;;;;;;7.90;4.30;;;11.10;1.00;;;;;;5080723;28;20543;-81
2023/03/23 08:12:19;;;;;;;3.57;3.27;;;11.20;1.00;;;;;;5081291;28;20454;-81
2023/03/23 08:14:47;;;;;;;4.20;3.50;;;11.00;99.90;;;;;;5094335;28;20437;-81
2023/03/23 08:17:15;;;;;;;4.53;3.30;;;11.10;99.90;;;;;;5092932;28;20666;-82
2023/03/23 08:19:43;;;;;;;3.60;3.30;;;11.20;99.90;;;;;;5094906;28;20443;-81
2023/03/23 08:22:10;;;;;;;4.40;4.00;;;11.20;99.90;;;;;;5095232;28;20587;-81
2023/03/23 08:24:37;;;;;;;16.43;5.50;;;11.20;99.90;;;;;;5094094;28;20444;-81
2023/03/23 08:27:06;;;;;;;6.90;3.60;;;11.20;99.90;;;;;;5093867;28;20456;-81
2023/03/23 08:29:33;;;;;;;4.50;3.80;;;11.20;99.90;;;;;;5092438;28;20439;-81
2023/03/23 08:32:02;;;;;;;5.77;3.77;;;11.20;99.90;;;;;;5085393;28;20814;-81
2023/03/23 08:34:30;;;;;;;5.27;3.47;;;11.20;99.90;;;;;;5083679;28;20479;-81
2023/03/23 08:36:57;;;;;;;4.33;3.27;;;11.30;99.90;;;;;;5080048;28;20989;-81
2023/03/23 08:39:25;;;;;;;7.80;3.70;;;11.30;99.90;;;;;;5080635;28;20446;-81
2023/03/23 08:41:52;;;;;;;3.60;3.30;;;11.30;99.90;;;;;;5083107;28;20489;-82
2023/03/23 08:44:20;;;;;;;3.27;2.97;;;11.40;99.90;;;;;;5081889;28;20479;-82
2023/03/23 08:46:47;;;;;;;4.70;3.77;;;11.30;99.90;;;;;;5081494;28;20470;-82
2023/03/23 08:49:14;;;;;;;4.80;3.13;;;11.40;99.90;;;;;;5081634;28;20451;-82
2023/03/23 08:51:41;;;;;;;3.57;3.27;;;11.40;99.90;;;;;;5082585;28;20854;-82
2023/03/23 08:54:08;;;;;;;3.70;3.40;;;11.50;99.90;;;;;;5082350;28;20840;-82
2023/03/23 08:56:36;;;;;;;7.67;3.27;;;11.60;99.90;;;;;;5083533;28;20476;-82
2023/03/23 08:59:02;;;;;;;5.20;3.10;;;12.10;99.90;;;;;;5085585;28;20447;-82
2023/03/23 09:01:31;;;;;;;4.27;3.23;;;11.80;99.90;;;;;;5086364;28;20473;-82
2023/03/23 09:03:59;;;;;;;3.43;3.13;;;11.80;99.90;;;;;;5086520;28;20457;-83
2023/03/23 09:06:27;;;;;;;5.40;2.90;;;11.70;99.90;;;;;;5088252;28;20479;-82
2023/03/23 09:08:55;;;;;;;4.30;3.30;;;11.80;99.90;;;;;;5084051;28;20517;-82
2023/03/23 09:11:22;;;;;;;2.83;2.63;;;11.90;99.90;;;;;;5092003;28;20451;-82
2023/03/23 09:13:49;;;;;;;3.17;2.87;;;12.10;99.90;;;;;;5090278;28;20529;-80
2023/03/23 09:16:16;;;;;;;3.07;2.87;;;12.20;48.20;;;;;;5086390;28;20476;-81
2023/03/23 09:18:45;;;;;;;4.50;2.97;;;12.20;24.30;;;;;;5085233;28;20482;-84
2023/03/23 09:21:12;;;;;;;2.37;2.17;;;12.10;1.00;;;;;;5083210;28;20489;-82
2023/03/23 09:23:41;;;;;;;3.17;2.77;;;12.10;1.00;;;;;;5082917;28;20488;-83
2023/03/23 09:26:08;;;;;;;3.87;3.57;;;12.10;1.00;;;;;;5085734;28;20553;-82
2023/03/23 09:28:35;;;;;;;2.93;2.73;;;12.20;1.00;;;;;;5083153;28;20455;-82
2023/03/23 09:31:02;;;;;;;2.70;2.50;;;12.30;1.00;;;;;;5083340;28;20470;-82
2023/03/23 09:33:33;;;;;;;4.10;3.80;;;12.30;1.00;;;;;;5083979;28;20417;-81
2023/03/23 09:36:04;;;;;;;4.93;2.63;;;12.40;1.00;;;;;;5081218;28;20482;-82
2023/03/23 09:38:33;;;;;;;5.33;2.37;;;12.40;1.00;;;;;;5080480;28;20921;-81
2023/03/23 09:41:06;;;;;;;3.50;2.40;;;12.50;1.00;;;;;;5086392;28;20456;-82
2023/03/23 09:43:47;;;;;;;2.93;2.70;;;12.40;1.00;;;;;;5082307;28;20453;-81
2023/03/23 09:46:31;;;;;;;3.20;2.90;;;12.50;1.00;;;;;;5084395;28;20467;-81
2023/03/23 09:49:00;;;;;;;2.67;2.50;;;12.70;1.00;;;;;;5084208;28;20439;-81
2023/03/23 09:51:42;;;;;;;3.27;2.47;;;12.70;1.00;;;;;;5084905;28;20442;-82
2023/03/23 09:54:16;;;;;;;2.87;2.33;;;12.80;99.90;;;;;;5081588;28;20461;-81
2023/03/23 09:56:43;;;;;;;2.57;2.37;;;12.90;99.90;;;;;;5084919;28;20467;-81
2023/03/23 09:59:17;;;;;;;2.47;2.27;;;13.10;99.90;;;;;;5087885;28;20439;-82
2023/03/23 10:01:47;;;;;;;3.57;2.33;;;13.20;99.90;;;;;;5085344;28;20478;-82
2023/03/23 10:04:23;;;;;;;4.17;2.33;;;13.20;99.90;;;;;;5084186;28;20449;-82
2023/03/23 10:06:53;;;;;;;2.67;2.43;;;13.30;99.90;;;;;;5088748;28;20477;-82
2023/03/23 10:09:20;;;;;;;3.57;2.27;;;13.40;99.90;;;;;;5090714;28;20455;-81
2023/03/23 10:11:57;;;;;;;2.90;2.43;;;13.20;99.90;;;;;;5088373;28;20519;-82
2023/03/23 10:14:55;;;;;;;2.67;2.47;;;13.40;1.00;;;;;;5082162;28;20432;-82
2023/03/23 10:17:27;;;;;;;2.23;2.03;;;13.40;1.00;;;;;;5064907;28;20472;-82
2023/03/23 10:20:01;;;;;;;2.57;2.37;;;13.50;1.00;;;;;;5083803;28;20426;-82
2023/03/23 10:22:33;;;;;;;3.53;2.90;;;13.50;99.90;;;;;;5083675;28;20516;-82
2023/03/23 10:25:08;;;;;;;3.20;2.23;;;13.50;99.90;;;;;;5086935;28;20800;-81
2023/03/23 10:27:44;;;;;;;3.70;2.70;;;13.60;99.90;;;;;;5084715;28;20474;-82
2023/03/23 10:30:18;;;;;;;8.20;6.40;;;13.70;5.20;;;;;;5083360;28;20479;-82
2023/03/23 10:32:50;;;;;;;6.13;2.83;;;13.80;69.70;;;;;;5090772;28;20428;-81
2023/03/23 10:35:20;;;;;;;7.00;3.10;;;13.80;1.00;;;;;;5090167;28;20443;-81
2023/03/23 10:37:53;;;;;;;2.80;2.13;;;13.90;1.00;;;;;;5081897;28;20475;-81
2023/03/23 10:40:24;;;;;;;2.93;2.67;;;13.90;80.80;;;;;;5079904;28;20432;-82
2023/03/23 10:42:54;;;;;;;1.77;1.50;;;13.90;99.90;;;;;;5079719;28;20831;-81
2023/03/23 10:45:25;;;;;;;2.73;2.53;;;14.00;1.00;;;;;;5079674;28;20856;-82
2023/03/23 10:47:57;;;;;;;4.27;2.57;;;14.00;1.00;;;;;;5079810;28;20981;-82
2023/03/23 10:50:28;;;;;;;6.13;2.73;;;14.10;99.90;;;;;;5079670;28;20518;-81
2023/03/23 10:52:58;;;;;;;6.10;2.47;;;14.20;1.00;;;;;;5080356;28;20510;-81
2023/03/23 10:55:38;;;;;;;2.90;2.57;;;13.70;99.90;;;;;;5080668;28;20442;-82
2023/03/23 10:58:06;;;;;;;2.00;1.90;;;14.00;1.00;;;;;;5079805;28;20435;-82
2023/03/23 11:00:34;;;;;;;8.03;1.80;;;14.10;52.10;;;;;;5080120;28;20487;-82
2023/03/23 11:03:04;;;;;;;3.67;1.90;;;14.20;92.20;;;;;;5084071;28;20489;-82
2023/03/23 11:05:39;;;;;;;5.80;2.30;;;14.20;80.00;;;;;;5084414;28;20427;-81
2023/03/23 11:08:13;;;;;;;1.70;1.60;;;14.10;1.00;;;;;;5080582;28;20470;-83
2023/03/23 11:10:48;;;;;;;2.23;1.90;;;14.10;1.00;;;;;;5080178;28;20468;-81
2023/03/23 11:13:17;;;;;;;5.50;2.90;;;14.10;1.00;;;;;;5081351;28;20464;-81
2023/03/23 11:15:46;;;;;;;2.40;2.20;;;14.40;12.10;;;;;;5081685;28;20988;-81
2023/03/23 11:18:19;;;;;;;2.23;1.90;;;14.20;1.00;;;;;;5082778;28;20513;-82
2023/03/23 11:20:50;;;;;;;3.77;2.70;;;14.30;1.00;;;;;;5080901;28;20480;-81
2023/03/23 11:23:23;;;;;;;3.70;2.17;;;14.20;1.00;;;;;;5080600;28;20472;-81
2023/03/23 11:25:58;;;;;;;4.57;3.03;;;14.40;1.00;;;;;;5079986;28;20482;-81
2023/03/23 11:28:31;;;;;;;6.20;2.60;;;14.30;1.00;;;;;;5081625;28;20439;-82
2023/03/23 11:31:00;;;;;;;4.30;2.50;;;14.60;1.00;;;;;;5079252;28;20438;-81
2023/03/23 11:33:30;;;;;;;3.87;2.60;;;14.50;1.00;;;;;;5078444;28;20444;-81
2023/03/23 11:35:58;;;;;;;2.57;2.37;;;14.50;99.90;;;;;;5080636;28;20504;-82
2023/03/23 11:38:28;;;;;;;2.97;1.93;;;14.60;99.90;;;;;;5079689;28;20483;-82
2023/03/23 11:40:55;;;;;;;2.80;2.30;;;14.60;99.90;;;;;;5078813;28;20472;-82
2023/03/23 11:43:24;;;;;;;2.40;2.20;;;14.60;99.90;;;;;;5079380;28;20488;-81
2023/03/23 11:46:00;;;;;;;3.90;2.00;;;14.70;99.90;;;;;;5090807;28;20502;-80
2023/03/23 11:48:35;;;;;;;2.60;2.40;;;14.90;99.90;;;;;;5094699;28;20450;-81
2023/03/23 11:51:07;;;;;;;3.13;1.80;;;14.90;99.90;;;;;;5094294;28;20427;-81
2023/03/23 11:53:45;;;;;;;3.10;2.77;;;14.80;99.90;;;;;;5093483;28;20480;-81
2023/03/23 11:56:19;;;;;;;4.50;3.00;;;14.90;99.90;;;;;;5089465;28;20476;-82
2023/03/23 11:58:47;;;;;;;2.70;2.50;;;15.10;99.90;;;;;;5084577;28;20455;-81
2023/03/23 12:01:22;;;;;;;3.23;2.60;;;15.10;99.90;;;;;;5093983;28;20443;-81
2023/03/23 12:04:04;;;;;;;3.53;2.03;;;15.10;99.90;;;;;;5092263;28;20495;-82
2023/03/23 12:06:41;;;;;;;4.10;3.77;;;15.20;99.90;;;;;;5087308;28;20491;-81
2023/03/23 12:09:25;;;;;;;3.20;2.90;;;15.10;99.90;;;;;;5088339;28;20436;-82
2023/03/23 12:12:02;;;;;;;2.60;2.40;;;15.30;99.90;;;;;;5089314;28;20523;-82
2023/03/23 12:14:40;;;;;;;2.80;2.20;;;15.10;99.90;;;;;;5091636;28;20439;-82
2023/03/23 12:17:20;;;;;;;2.43;2.07;;;15.10;99.90;;;;;;5091925;28;20521;-82
2023/03/23 12:19:54;;;;;;;2.40;2.27;;;15.30;99.90;;;;;;5097017;28;20487;-81
2023/03/23 12:22:38;;;;;;;2.83;2.50;;;15.10;99.90;;;;;;5096241;28;20478;-81
2023/03/23 12:25:34;;;;;;;2.37;2.10;;;15.10;99.90;;;;;;5087107;28;20459;-82
2023/03/23 12:28:12;;;;;;;2.80;2.33;;;15.20;74.00;;;;;;5083706;28;20824;-82
2023/03/23 12:30:47;;;;;;;2.63;2.03;;;15.20;83.40;;;;;;5083138;28;20439;-81
2023/03/23 12:33:24;;;;;;;3.43;2.70;;;14.90;99.90;;;;;;5083168;28;20499;-82
2023/03/23 12:36:03;;;;;;;5.40;2.50;;;15.30;59.80;;;;;;5087451;28;20473;-82
2023/03/23 12:38:49;;;;;;;5.07;2.00;;;15.20;21.50;;;;;;5089330;28;20504;-82
2023/03/23 12:41:22;;;;;;;2.30;2.03;;;15.20;35.10;;;;;;5090419;28;20435;-82
2023/03/23 12:43:54;;;;;;;2.17;1.97;;;15.20;20.20;;;;;;5085899;28;20482;-81
2023/03/23 12:46:38;;;;;;;4.67;2.50;;;15.20;18.80;;;;;;5083665;28;20525;-82
2023/03/23 12:49:11;;;;;;;2.73;2.53;;;15.30;53.10;;;;;;5083736;28;20431;-81
2023/03/23 12:51:43;;;;;;;5.97;3.57;;;15.30;28.00;;;;;;5083859;28;20437;-82
2023/03/23 12:54:16;;;;;;;5.47;2.67;;;15.40;20.80;;;;;;5086877;28;20492;-81
2023/03/23 12:56:51;;;;;;;2.63;2.43;;;15.40;14.10;;;;;;5086233;28;20468;-81
2023/03/23 12:59:23;;;;;;;2.80;2.60;;;15.70;99.90;;;;;;5083792;28;20435;-82
2023/03/23 13:01:56;;;;;;;2.73;2.33;;;15.40;1.00;;;;;;5083110;28;20438;-82
2023/03/23 13:04:27;;;;;;;2.57;2.30;;;15.50;36.80;;;;;;5083183;28;20430;-82
2023/03/23 13:06:53;;;;;;;4.73;2.80;;;15.50;1.00;;;;;;5081787;28;20491;-82